Riverside, Nevada
Current Conditions -  °F | °C
As of 6:35 PM on Sunday 23 Nov 2014 (Local Time) from KSGU Reporting Station
Clear Clear  
Wind Chill: 45°   Ceiling: Unl
Heat Index: 48°   Visibility: 10mi
Dew Point: 10°   Wind: 7mph
Humidity: 22%   Direction: 50°NE
Pressure: 30.24"   Gusts: 16mph
Location:  36.7734°N, 114.127°W
Report Text: KSGU 240235Z AUTO 05006G14KT 10SM CLR 09/M12 A3024 RMK AO1
Loading
Personal Weather Stations






























Interactive Weather Map New forecast layout! Learn more

10-Day Weather Forecast

Advertisements
Track Severe Weather on mobile